Terminal Aerodrome Forecast
Issued by NWS

Home | Current Version | Previous Version | Graphics & Text | Print | Product List | Glossary On
Versions: 1 2 3 4 5 6 7 8 9 10 11 12 13 14 15 16 17 18 19 20 21
000
FTUS43 KFGF 282320
TAFBJI
TAF
KBJI 282320Z 2900/2924 12010KT P6SM SCT060
     FM290300 18006KT P6SM VCTS BKN060CB
     FM290900 VRB06KT P6SM SCT200
     FM291800 27009KT P6SM BKN130
     FM292000 30011KT P6SM SCT200=

USA.gov is the U.S. government's official web portal to all federal, state and local government web resources and services.